Time;durP1;ratioP1;P1;durP2;ratioP2;P2;SDS_P1;SDS_P2;PMS_P1;PMS_P2;Temp;Humidity;BMP_temperature;BMP_pressure;BME280_temperature;BME280_humidity;BME280_pressure;Samples;Min_cycle;Max_cycle;Signal;HPM_P1;HPM_P2
2021/04/28 00:01:23;;;;;;;23.17;8.68;;;;;;;2.08;74.07;98483.22;5085019;28;20040;-72
2021/04/28 00:03:49;;;;;;;15.75;5.88;;;;;;;2.05;73.82;98481.03;5095701;28;20049;-72
2021/04/28 00:06:16;;;;;;;12.63;4.78;;;;;;;1.93;74.03;98476.56;5074521;28;20040;-72
2021/04/28 00:08:42;;;;;;;7.13;2.70;;;;;;;1.99;73.74;98474.75;5071057;28;20055;-71
2021/04/28 00:11:09;;;;;;;6.28;2.47;;;;;;;2.06;73.76;98474.56;5081418;28;20046;-71
2021/04/28 00:13:35;;;;;;;6.80;2.33;;;;;;;1.96;73.67;98469.88;5073257;28;20156;-70
2021/04/28 00:16:03;;;;;;;4.40;1.70;;;;;;;1.94;73.37;98474.69;5087485;28;20070;-71
2021/04/28 00:18:29;;;;;;;5.03;2.20;;;;;;;1.98;73.63;98481.22;5081615;28;20048;-71
2021/04/28 00:20:55;;;;;;;5.68;1.58;;;;;;;1.87;73.62;98491.06;5070900;28;20076;-71
2021/04/28 00:23:22;;;;;;;6.60;2.45;;;;;;;2.00;73.42;98492.56;5075016;28;20066;-71
2021/04/28 00:25:48;;;;;;;17.63;7.10;;;;;;;2.07;73.20;98493.22;5080029;28;20051;-71
2021/04/28 00:28:15;;;;;;;14.45;4.97;;;;;;;1.92;73.13;98491.13;5089431;28;20128;-70
2021/04/28 00:30:41;;;;;;;31.33;11.10;;;;;;;2.02;73.23;98503.09;5081023;28;20094;-70
2021/04/28 00:33:11;;;;;;;32.13;12.00;;;;;;;1.85;73.21;98477.03;5074235;28;20040;-71
2021/04/28 00:35:38;;;;;;;29.95;11.10;;;;;;;1.95;73.07;98487.94;5078662;28;20036;-71
2021/04/28 00:38:04;;;;;;;20.63;8.15;;;;;;;1.79;72.74;98470.75;5074599;28;20043;-72
2021/04/28 00:40:33;;;;;;;18.33;7.50;;;;;;;2.03;72.63;98483.16;5081217;28;20416;-71
2021/04/28 00:43:00;;;;;;;9.75;3.53;;;;;;;1.97;72.85;98501.16;5082249;28;20147;-71
2021/04/28 00:45:28;;;;;;;6.07;2.30;;;;;;;1.98;72.45;98500.09;5082062;28;20040;-69
2021/04/28 00:47:56;;;;;;;5.03;1.75;;;;;;;1.91;72.34;98502.16;5095660;28;20044;-67
2021/04/28 00:50:25;;;;;;;8.77;2.33;;;;;;;1.85;72.46;98503.97;5090570;28;20573;-69
2021/04/28 00:52:52;;;;;;;8.48;2.65;;;;;;;1.77;72.81;98507.09;5086701;28;20439;-67
2021/04/28 00:55:18;;;;;;;12.43;4.00;;;;;;;1.78;73.03;98520.31;5093975;28;20047;-69
2021/04/28 00:57:45;;;;;;;22.77;8.10;;;;;;;1.74;73.01;98507.59;5111159;28;20472;-69
2021/04/28 01:00:14;;;;;;;15.80;5.75;;;;;;;1.67;72.77;98511.28;5087173;28;20093;-68
2021/04/28 01:02:41;;;;;;;19.65;6.93;;;;;;;1.72;73.24;98515.94;5098784;28;20041;-67
2021/04/28 01:05:09;;;;;;;8.95;3.42;;;;;;;1.72;72.81;98509.72;5087247;28;20538;-68
2021/04/28 01:07:36;;;;;;;;;;;;;;;1.76;72.75;98511.69;5077161;28;20066;-68
2021/04/28 01:10:06;;;;;;;13.00;4.70;;;;;;;1.86;72.47;98511.00;5085228;28;20392;-68
2021/04/28 01:12:34;;;;;;;7.72;2.67;;;;;;;1.64;73.10;98519.03;5080236;28;20052;-69
2021/04/28 01:15:01;;;;;;;5.53;1.95;;;;;;;1.73;72.67;98498.69;5088983;28;20409;-68
2021/04/28 01:17:31;;;;;;;5.32;2.03;;;;;;;1.58;72.74;98509.25;5091751;28;20040;-68
2021/04/28 01:19:57;;;;;;;4.70;1.75;;;;;;;1.67;72.99;98511.28;5104308;28;20036;-66
2021/04/28 01:22:24;;;;;;;6.70;2.00;;;;;;;1.74;72.75;98521.91;5085324;28;20045;-67
2021/04/28 01:24:51;;;;;;;8.95;3.28;;;;;;;1.80;72.06;98533.56;5079184;28;20511;-69
2021/04/28 01:27:24;;;;;;;6.50;2.03;;;;;;;1.70;72.31;98537.72;5081077;28;20048;-70
2021/04/28 01:29:51;;;;;;;28.35;9.45;;;;;;;1.71;72.70;98525.06;5089128;28;20033;-68
2021/04/28 01:32:21;;;;;;;30.55;7.43;;;;;;;1.65;72.55;98532.28;5064222;28;20059;-68
2021/04/28 01:35:01;;;;;;;12.27;3.88;;;;;;;1.79;72.40;98524.66;5088090;28;20048;-69
2021/04/28 01:37:30;;;;;;;;;;;;;;;1.68;72.65;98534.47;5090555;28;20047;-69
2021/04/28 01:39:58;;;;;;;13.25;2.55;;;;;;;1.77;72.40;98553.72;5093021;28;19963;-69
2021/04/28 01:42:25;;;;;;;8.52;2.78;;;;;;;1.75;72.72;98538.88;5083609;28;20531;-68
2021/04/28 01:44:52;;;;;;;6.47;2.43;;;;;;;1.68;72.66;98545.25;5076477;28;20405;-68
2021/04/28 01:47:20;;;;;;;10.32;1.83;;;;;;;1.53;73.06;98545.03;5091257;28;20404;-69
2021/04/28 01:49:47;;;;;;;7.78;2.13;;;;;;;1.59;72.91;98538.63;5089098;28;20625;-70
2021/04/28 01:52:14;;;;;;;3.20;1.45;;;;;;;1.51;73.00;98545.25;5086316;28;20046;-69
2021/04/28 01:54:41;;;;;;;4.68;1.73;;;;;;;1.53;73.25;98545.81;5075295;28;20048;-69
2021/04/28 01:57:09;;;;;;;3.83;1.65;;;;;;;1.60;72.80;98545.66;5087233;28;20059;-67
2021/04/28 01:59:44;;;;;;;7.95;2.78;;;;;;;1.52;73.57;98556.88;5076131;28;20056;-68
2021/04/28 02:02:37;;;;;;;22.08;8.93;;;;;;;1.50;73.71;98562.50;5069099;28;20049;-68
2021/04/28 02:05:05;;;;;;;24.70;9.10;;;;;;;1.60;73.11;98563.72;5081596;28;20044;-69
2021/04/28 02:07:33;;;;;;;12.50;4.78;;;;;;;1.40;73.32;98562.31;5092686;28;20130;-69
2021/04/28 02:10:00;;;;;;;19.80;7.25;;;;;;;1.49;73.48;98573.53;5086376;28;20048;-68
2021/04/28 02:12:28;;;;;;;;;;;;;;;1.43;73.54;98572.63;5083530;28;20048;-68
2021/04/28 02:15:04;;;;;;;14.07;5.35;;;;;;;1.42;73.76;98576.38;5087088;28;19993;-68
2021/04/28 02:17:34;;;;;;;6.15;2.55;;;;;;;1.34;73.63;98576.78;5092168;28;20524;-67
2021/04/28 02:20:05;;;;;;;10.85;4.90;;;;;;;1.50;73.68;98583.25;5078408;28;20475;-68
2021/04/28 02:22:40;;;;;;;8.77;2.78;;;;;;;1.42;73.25;98585.25;5088425;28;20032;-68
2021/04/28 02:25:17;;;;;;;7.10;2.90;;;;;;;1.27;73.76;98582.31;5109205;28;20176;-69
2021/04/28 02:27:54;;;;;;;8.05;3.63;;;;;;;1.43;73.49;98594.19;5090539;28;20070;-69
2021/04/28 02:30:24;;;;;;;8.40;3.67;;;;;;;1.41;73.64;98583.63;5063331;28;20139;-69
2021/04/28 02:32:51;;;;;;;8.98;3.97;;;;;;;1.35;73.75;98586.47;5087558;28;20048;-68
2021/04/28 02:35:21;;;;;;;8.35;3.20;;;;;;;1.25;73.71;98585.28;5073031;28;20060;-68
2021/04/28 02:38:04;;;;;;;7.13;2.20;;;;;;;1.31;73.63;98599.63;5072346;28;20036;-69
2021/04/28 02:41:02;;;;;;;6.13;2.22;;;;;;;1.23;74.05;98598.13;5088700;28;20060;-69
2021/04/28 02:43:31;;;;;;;6.82;2.92;;;;;;;1.15;74.15;98598.53;5106437;28;20511;-69
2021/04/28 02:46:09;;;;;;;9.48;3.65;;;;;;;1.19;74.42;98623.91;5087727;28;20523;-71
2021/04/28 02:48:40;;;;;;;7.00;2.67;;;;;;;1.11;74.49;98614.38;5088612;28;20040;-69
2021/04/28 02:51:39;;;;;;;4.88;2.17;;;;;;;1.02;74.67;98623.06;5061777;28;20106;-68
2021/04/28 02:54:32;;;;;;;8.80;3.55;;;;;;;1.30;74.05;98619.53;5049062;28;20140;-69
2021/04/28 02:56:59;;;;;;;8.98;3.75;;;;;;;1.39;73.95;98619.94;5067888;28;20177;-69
2021/04/28 02:59:27;;;;;;;8.80;3.50;;;;;;;1.40;73.63;98610.81;5087595;28;20056;-69
2021/04/28 03:01:53;;;;;;;;;;;;;;;1.45;73.47;98615.47;5082987;28;20405;-70
2021/04/28 03:04:20;;;;;;;9.68;3.25;;;;;;;1.55;73.26;98621.03;5081083;28;19935;-68
2021/04/28 03:07:19;;;;;;;7.95;3.20;;;;;;;1.61;73.16;98633.50;5087873;28;20055;-70
2021/04/28 03:09:45;;;;;;;11.70;3.30;;;;;;;1.66;72.91;98630.09;5074010;28;20048;-69
2021/04/28 03:12:13;;;;;;;8.85;3.15;;;;;;;1.73;72.83;98632.63;5073628;28;20049;-69
2021/04/28 03:14:47;;;;;;;9.45;3.30;;;;;;;1.77;72.93;98636.47;5081662;28;20141;-70
2021/04/28 03:17:13;;;;;;;;;;;;;;;1.69;73.02;98627.72;5072454;28;20052;-70
2021/04/28 03:19:40;;;;;;;8.82;3.80;;;;;;;1.75;73.07;98641.28;5075134;28;20031;-70
2021/04/28 03:22:06;;;;;;;8.33;3.87;;;;;;;1.85;72.95;98633.38;5077698;28;20040;-68
2021/04/28 03:24:34;;;;;;;8.93;3.95;;;;;;;1.77;72.82;98631.91;5089796;28;20693;-69
2021/04/28 03:27:08;;;;;;;8.05;3.40;;;;;;;1.77;72.73;98633.75;5073962;28;20476;-70
2021/04/28 03:29:36;;;;;;;7.72;3.72;;;;;;;1.79;72.84;98637.03;5089461;28;20060;-70
2021/04/28 03:32:04;;;;;;;8.43;3.63;;;;;;;1.59;73.15;98641.03;5086528;28;20126;-71
2021/04/28 03:34:32;;;;;;;10.88;3.85;;;;;;;1.86;72.81;98645.78;5099542;28;20101;-70
2021/04/28 03:36:58;;;;;;;8.30;3.80;;;;;;;1.85;72.80;98644.16;5078690;28;20131;-70
2021/04/28 03:39:41;;;;;;;9.57;4.45;;;;;;;1.87;72.71;98647.41;5089089;28;20047;-72
2021/04/28 03:42:08;;;;;;;8.10;3.80;;;;;;;1.87;72.56;98647.41;5088395;28;20063;-71
2021/04/28 03:44:34;;;;;;;11.38;4.22;;;;;;;1.73;72.91;98655.03;5083538;28;20140;-70
2021/04/28 03:47:01;;;;;;;9.65;3.78;;;;;;;1.64;73.39;98651.91;5085669;28;20143;-70
2021/04/28 03:49:28;;;;;;;12.48;4.30;;;;;;;1.92;72.60;98644.78;5070496;28;20074;-68
2021/04/28 03:51:55;;;;;;;11.02;4.57;;;;;;;1.86;72.76;98647.66;5052496;28;20048;-69
2021/04/28 03:54:40;;;;;;;13.02;3.95;;;;;;;1.93;72.46;98656.41;5076375;28;20036;-71
2021/04/28 03:57:07;;;;;;;9.68;4.63;;;;;;;2.12;72.41;98651.56;5088875;28;20067;-69
2021/04/28 03:59:34;;;;;;;10.90;4.32;;;;;;;2.17;71.99;98648.94;5073073;28;20052;-69
2021/04/28 04:02:02;;;;;;;9.80;4.45;;;;;;;2.20;71.90;98661.13;5078103;28;20152;-68
2021/04/28 04:04:43;;;;;;;8.68;3.83;;;;;;;2.30;71.46;98663.94;5089365;28;20052;-71
2021/04/28 04:07:19;;;;;;;13.82;3.95;;;;;;;2.09;71.49;98669.06;5075811;28;20033;-69
2021/04/28 04:10:05;;;;;;;8.38;3.50;;;;;;;2.21;71.56;98668.94;5077114;28;20052;-70
2021/04/28 04:12:32;;;;;;;10.65;3.90;;;;;;;2.17;71.57;98665.13;5089224;28;20046;-69
2021/04/28 04:14:58;;;;;;;8.48;3.63;;;;;;;2.24;71.33;98664.94;5080675;28;20036;-65
2021/04/28 04:17:25;;;;;;;8.65;3.65;;;;;;;2.36;71.06;98667.53;5098149;28;20041;-65
2021/04/28 04:20:24;;;;;;;10.02;4.03;;;;;;;2.47;70.99;98672.03;5067643;28;20505;-65
2021/04/28 04:23:03;;;;;;;6.20;2.80;;;;;;;2.41;70.48;98675.69;5081357;28;20046;-67
2021/04/28 04:25:53;;;;;;;8.88;3.83;;;;;;;2.62;70.07;98682.19;5070788;28;20515;-69
2021/04/28 04:28:42;;;;;;;9.05;4.13;;;;;;;2.62;70.23;98673.28;5050283;28;20507;-67
2021/04/28 04:31:23;;;;;;;7.82;2.90;;;;;;;2.27;70.19;98683.34;5082318;28;20123;-67
2021/04/28 04:34:08;;;;;;;8.35;3.17;;;;;;;2.44;69.82;98685.19;5084905;28;20045;-66
2021/04/28 04:36:53;;;;;;;10.15;3.28;;;;;;;2.51;69.71;98683.13;5079820;28;20040;-65
2021/04/28 04:39:38;;;;;;;7.40;2.83;;;;;;;2.72;69.54;98683.41;5082196;28;20487;-67
2021/04/28 04:42:24;;;;;;;8.68;3.20;;;;;;;2.96;69.22;98684.75;5076740;28;20047;-66
2021/04/28 04:44:56;;;;;;;7.95;3.30;;;;;;;3.18;68.93;98688.53;5076690;28;20039;-67
2021/04/28 04:47:22;;;;;;;8.77;3.50;;;;;;;3.24;68.75;98679.44;5081321;28;20041;-66
2021/04/28 04:49:49;;;;;;;11.85;3.30;;;;;;;3.38;68.58;98696.88;5081143;28;20587;-66
2021/04/28 04:52:16;;;;;;;7.93;2.80;;;;;;;3.31;67.67;98693.53;5082485;28;20060;-65
2021/04/28 04:54:42;;;;;;;9.48;2.60;;;;;;;3.19;66.70;98703.66;5079437;28;20063;-65
2021/04/28 04:57:08;;;;;;;5.00;2.00;;;;;;;3.12;66.63;98677.66;5074318;28;20048;-64
2021/04/28 04:59:34;;;;;;;4.47;1.98;;;;;;;3.09;66.54;98713.28;5080564;28;20039;-66
2021/04/28 05:02:00;;;;;;;6.88;2.22;;;;;;;3.16;66.83;98709.56;5084377;28;20194;-65
2021/04/28 05:04:26;;;;;;;12.38;3.30;;;;;;;3.34;66.90;98698.44;5079246;28;20063;-63
2021/04/28 05:06:52;;;;;;;9.90;3.10;;;;;;;3.45;67.31;98715.59;5086388;28;20106;-65
2021/04/28 05:09:20;;;;;;;7.70;2.80;;;;;;;3.43;67.13;98701.50;5076259;28;20125;-66
2021/04/28 05:11:46;;;;;;;;;;;;;;;3.63;66.83;98721.72;5079150;28;20064;-65
2021/04/28 05:14:12;;;;;;;8.23;2.88;;;;;;;3.64;66.85;98709.81;5085902;28;20234;-65
2021/04/28 05:16:38;;;;;;;6.95;2.80;;;;;;;3.68;66.06;98719.03;5081999;28;20110;-66
2021/04/28 05:19:04;;;;;;;7.60;2.42;;;;;;;3.55;65.66;98726.47;5073586;28;20044;-65
2021/04/28 05:21:30;;;;;;;9.05;2.95;;;;;;;3.72;65.87;98728.28;5070049;28;20131;-68
2021/04/28 05:23:59;;;;;;;8.23;2.90;;;;;;;3.47;65.32;98720.72;5081122;28;20097;-65
2021/04/28 05:26:30;;;;;;;7.18;2.70;;;;;;;3.49;65.10;98732.09;5086430;28;20048;-64
2021/04/28 05:28:56;;;;;;;8.77;2.97;;;;;;;3.66;65.32;98732.81;5090056;28;20045;-66
2021/04/28 05:31:22;;;;;;;5.72;2.38;;;;;;;3.71;65.34;98725.84;5075537;28;20044;-63
2021/04/28 05:33:48;;;;;;;8.35;2.50;;;;;;;3.82;63.81;98739.19;5080576;28;20053;-66
2021/04/28 05:36:14;;;;;;;9.88;2.42;;;;;;;3.91;64.50;98717.09;5090092;28;20431;-65
2021/04/28 05:38:40;;;;;;;8.68;2.75;;;;;;;4.16;64.37;98737.31;5099412;28;20047;-64
2021/04/28 05:41:06;;;;;;;7.03;2.50;;;;;;;4.11;63.43;98741.63;5091289;28;20055;-67
2021/04/28 05:43:33;;;;;;;10.60;2.42;;;;;;;3.92;63.86;98745.78;5078287;28;20448;-64
2021/04/28 05:46:01;;;;;;;10.85;2.90;;;;;;;4.22;64.01;98742.50;5081661;28;20040;-65
2021/04/28 05:48:27;;;;;;;10.02;2.90;;;;;;;4.31;63.84;98750.97;5083097;28;20048;-65
2021/04/28 05:50:54;;;;;;;13.38;2.90;;;;;;;4.32;63.87;98760.72;5081119;28;20434;-66
2021/04/28 05:53:20;;;;;;;10.68;2.60;;;;;;;4.31;63.34;98748.25;5083735;28;20044;-62
2021/04/28 05:55:47;;;;;;;7.88;2.60;;;;;;;4.51;63.49;98763.00;5092169;28;20048;-66
2021/04/28 05:58:15;;;;;;;10.88;2.50;;;;;;;4.64;63.32;98761.75;5078327;28;20044;-66
2021/04/28 06:00:42;;;;;;;9.45;2.42;;;;;;;4.64;62.64;98761.75;5079048;28;20489;-66
2021/04/28 06:03:08;;;;;;;13.60;2.78;;;;;;;4.78;62.79;98762.94;5087785;28;20329;-66
2021/04/28 06:05:34;;;;;;;15.95;3.15;;;;;;;4.68;61.66;98762.84;5083411;28;20127;-66
2021/04/28 06:08:00;;;;;;;8.90;2.30;;;;;;;4.79;61.95;98771.84;5074837;28;20443;-64
2021/04/28 06:10:26;;;;;;;8.15;2.63;;;;;;;4.83;60.74;98773.78;5087071;28;20059;-69
2021/04/28 06:12:52;;;;;;;6.75;1.88;;;;;;;4.43;60.34;98774.31;5081321;28;20317;-66
2021/04/28 06:15:18;;;;;;;4.78;1.77;;;;;;;4.55;61.07;98777.66;5087609;28;20105;-68
2021/04/28 06:17:45;;;;;;;8.63;2.20;;;;;;;4.77;60.87;98779.44;5096515;28;20428;-66
2021/04/28 06:20:14;;;;;;;7.00;2.00;;;;;;;4.82;60.54;98777.56;5086485;28;20054;-64
2021/04/28 06:22:42;;;;;;;10.38;2.53;;;;;;;4.76;60.53;98780.50;5082621;28;20175;-64
2021/04/28 06:25:09;;;;;;;11.90;2.17;;;;;;;4.75;60.08;98795.94;5080080;28;20479;-65
2021/04/28 06:27:36;;;;;;;13.55;2.35;;;;;;;5.02;59.96;98780.66;5087604;28;20593;-66
2021/04/28 06:30:03;;;;;;;6.87;2.00;;;;;;;5.22;59.49;98788.06;5082094;28;20060;-65
2021/04/28 06:32:30;;;;;;;9.93;2.40;;;;;;;5.20;59.52;98784.78;5083061;28;20074;-66
2021/04/28 06:34:57;;;;;;;8.35;2.30;;;;;;;5.50;59.21;98800.38;5077341;28;20044;-65
2021/04/28 06:37:23;;;;;;;7.93;1.90;;;;;;;5.62;59.46;98792.00;5080038;28;20122;-66
2021/04/28 06:39:49;;;;;;;9.00;2.42;;;;;;;5.78;59.31;98795.59;5080434;28;20579;-69
2021/04/28 06:42:15;;;;;;;9.38;2.28;;;;;;;5.89;59.03;98793.72;5081731;28;20045;-66
2021/04/28 06:44:41;;;;;;;7.85;2.33;;;;;;;5.99;58.98;98795.63;5079142;28;20135;-67
2021/04/28 06:47:08;;;;;;;7.85;2.30;;;;;;;6.16;58.35;98794.59;5087030;28;20466;-67
2021/04/28 06:49:34;;;;;;;6.57;2.08;;;;;;;6.22;57.28;98798.94;5085060;28;20048;-66
2021/04/28 06:52:01;;;;;;;5.15;2.00;;;;;;;6.33;57.67;98791.63;5079962;28;20046;-66
2021/04/28 06:54:27;;;;;;;6.10;2.10;;;;;;;6.34;57.39;98799.47;5079321;28;20044;-65
2021/04/28 06:56:53;;;;;;;10.32;2.10;;;;;;;6.46;57.01;98796.50;5079589;28;20093;-65
2021/04/28 06:59:20;;;;;;;9.50;2.35;;;;;;;6.61;56.57;98800.28;5083884;28;20048;-66
2021/04/28 07:01:49;;;;;;;8.48;2.08;;;;;;;6.55;56.09;98802.19;5088018;28;20048;-68
2021/04/28 07:04:15;;;;;;;8.27;2.05;;;;;;;6.60;56.15;98807.63;5082791;28;20567;-63
2021/04/28 07:06:40;;;;;;;7.68;2.30;;;;;;;6.77;56.26;98796.47;5079537;28;20138;-64
2021/04/28 07:09:07;;;;;;;9.13;2.40;;;;;;;7.01;55.77;98803.22;5088478;28;20594;-65
2021/04/28 07:11:34;;;;;;;9.80;2.00;;;;;;;7.06;55.88;98814.88;5082868;28;20156;-65
2021/04/28 07:14:00;;;;;;;6.22;2.13;;;;;;;6.85;55.03;98797.81;5077717;28;20059;-64
2021/04/28 07:16:26;;;;;;;11.15;2.78;;;;;;;7.04;54.94;98813.56;5080311;28;20253;-63
2021/04/28 07:18:52;;;;;;;6.20;1.90;;;;;;;7.09;54.85;98817.03;5082945;28;20055;-63
2021/04/28 07:21:19;;;;;;;6.75;1.83;;;;;;;6.89;53.89;98828.81;5082688;28;20139;-64
2021/04/28 07:23:45;;;;;;;7.47;1.67;;;;;;;6.78;55.06;98827.97;5084027;28;20369;-64
2021/04/28 07:26:13;;;;;;;17.42;2.22;;;;;;;6.79;55.11;98826.91;5084202;28;20505;-62
2021/04/28 07:28:39;;;;;;;15.52;2.22;;;;;;;6.74;54.92;98828.81;5083704;28;20415;-66
2021/04/28 07:31:06;;;;;;;21.80;2.40;;;;;;;6.81;54.80;98838.31;5077094;28;20131;-65
2021/04/28 07:33:32;;;;;;;6.65;2.00;;;;;;;6.32;55.25;98834.25;5082804;28;20334;-67
2021/04/28 07:35:59;;;;;;;6.88;2.00;;;;;;;6.30;54.76;98830.16;5075314;28;20062;-65
2021/04/28 07:38:25;;;;;;;5.22;1.83;;;;;;;6.24;54.19;98853.75;5078346;28;20056;-65
2021/04/28 07:40:51;;;;;;;5.15;1.77;;;;;;;5.62;56.04;98854.38;5079653;28;20412;-64
2021/04/28 07:43:18;;;;;;;12.25;2.08;;;;;;;5.23;56.99;98850.13;5079341;28;20040;-65
2021/04/28 07:45:44;;;;;;;8.02;2.33;;;;;;;5.76;57.09;98849.28;5077141;28;20133;-63
2021/04/28 07:48:14;;;;;;;9.27;2.00;;;;;;;5.68;57.13;98866.06;5072900;28;20068;-63
2021/04/28 07:50:44;;;;;;;7.15;2.20;;;;;;;5.71;57.12;98860.13;5079894;28;20093;-65
2021/04/28 07:53:10;;;;;;;6.22;1.67;;;;;;;5.58;56.58;98863.31;5074594;28;20690;-66
2021/04/28 07:55:37;;;;;;;7.80;2.00;;;;;;;5.96;56.64;98856.66;5076628;28;20053;-66
2021/04/28 07:58:04;;;;;;;4.35;1.75;;;;;;;6.20;56.63;98863.53;5047657;28;20044;-64
2021/04/28 08:00:32;;;;;;;5.32;1.65;;;;;;;5.85;57.20;98865.06;5084760;28;20046;-65
2021/04/28 08:02:58;;;;;;;4.43;1.70;;;;;;;6.23;57.38;98865.72;5079221;28;20048;-66
2021/04/28 08:05:24;;;;;;;4.60;1.83;;;;;;;6.53;56.87;98861.41;5072358;28;20040;-67
2021/04/28 08:07:51;;;;;;;9.00;2.22;;;;;;;6.62;56.15;98859.78;5079948;28;20048;-69
2021/04/28 08:10:18;;;;;;;5.85;2.05;;;;;;;6.79;55.99;98859.53;5077321;28;20052;-67
2021/04/28 08:12:45;;;;;;;7.78;1.90;;;;;;;6.81;56.12;98862.78;5086058;28;20504;-68
2021/04/28 08:15:12;;;;;;;5.60;1.98;;;;;;;6.79;55.88;98851.38;5075892;28;20052;-66
2021/04/28 08:17:40;;;;;;;5.60;1.88;;;;;;;6.99;54.80;98857.03;5086114;28;20135;-64
2021/04/28 08:20:07;;;;;;;5.55;1.70;;;;;;;7.11;54.49;98863.00;5073851;28;20143;-65
2021/04/28 08:22:34;;;;;;;;;;;;;;;6.97;54.41;98856.50;5074646;28;20166;-68
2021/04/28 08:25:00;;;;;;;6.85;2.00;;;;;;;7.56;54.47;98856.91;5082810;28;20027;-67
2021/04/28 08:27:26;;;;;;;4.32;1.70;;;;;;;7.86;53.73;98866.81;5073715;28;20063;-67
2021/04/28 08:29:52;;;;;;;4.35;1.63;;;;;;;7.94;53.32;98840.94;5082094;28;20044;-67
2021/04/28 08:32:19;;;;;;;9.88;2.15;;;;;;;7.98;52.73;98866.50;5076135;28;20037;-68
2021/04/28 08:34:46;;;;;;;9.32;2.08;;;;;;;8.25;52.70;98867.19;5074850;28;20059;-68
2021/04/28 08:37:12;;;;;;;7.47;1.77;;;;;;;8.17;51.72;98865.88;5080782;28;20069;-69
2021/04/28 08:39:38;;;;;;;6.45;1.60;;;;;;;8.30;51.69;98865.25;5073005;28;20375;-69
2021/04/28 08:42:04;;;;;;;7.53;1.60;;;;;;;8.23;51.41;98871.00;5072476;28;20497;-68
2021/04/28 08:44:31;;;;;;;6.53;1.60;;;;;;;8.28;51.30;98853.81;5088604;28;20101;-69
2021/04/28 08:46:57;;;;;;;5.45;1.50;;;;;;;8.43;50.88;98871.94;5077198;28;20102;-69
2021/04/28 08:49:24;;;;;;;8.88;1.90;;;;;;;8.64;50.81;98871.81;5083743;28;20049;-64
2021/04/28 08:51:51;;;;;;;5.45;1.73;;;;;;;8.79;50.21;98881.81;5084289;28;20052;-68
2021/04/28 08:54:22;;;;;;;12.27;2.22;;;;;;;8.84;50.65;98875.50;5082165;28;20146;-70
2021/04/28 08:56:50;;;;;;;4.93;1.60;;;;;;;8.22;50.36;98853.03;5076653;28;20043;-67
2021/04/28 08:59:16;;;;;;;4.40;1.75;;;;;;;7.57;51.00;98877.56;5078241;28;20094;-65
2021/04/28 09:01:45;;;;;;;5.97;2.08;;;;;;;6.34;53.57;98874.72;5079371;28;20162;-64
2021/04/28 09:04:12;;;;;;;8.15;2.00;;;;;;;5.96;55.02;98893.84;5084241;28;20039;-68
2021/04/28 09:06:38;;;;;;;3.03;1.30;;;;;;;5.58;55.37;98888.56;5081313;28;20053;-66
2021/04/28 09:09:07;;;;;;;11.10;2.30;;;;;;;6.01;54.90;98896.59;5076768;28;20558;-69
2021/04/28 09:11:36;;;;;;;9.20;2.22;;;;;;;6.55;54.15;98888.31;5086806;28;20066;-66
2021/04/28 09:14:11;;;;;;;10.55;1.60;;;;;;;6.57;54.30;98892.38;5081592;28;20071;-66
2021/04/28 09:16:40;;;;;;;13.65;1.90;;;;;;;7.29;52.63;98886.09;5051163;28;20044;-67
2021/04/28 09:19:19;;;;;;;6.60;1.90;;;;;;;7.84;51.73;98892.72;5080752;28;20051;-64
2021/04/28 09:22:06;;;;;;;6.65;2.00;;;;;;;7.82;51.91;98898.41;5079334;28;20069;-67
2021/04/28 09:25:00;;;;;;;8.20;1.95;;;;;;;6.83;53.17;98908.69;5081778;28;20040;-66
2021/04/28 09:27:55;;;;;;;7.57;1.90;;;;;;;7.05;52.77;98889.38;5078576;28;20551;-65
2021/04/28 09:30:49;;;;;;;9.50;1.80;;;;;;;7.75;52.10;98904.16;5090237;28;20040;-66
2021/04/28 09:33:15;;;;;;;3.90;1.58;;;;;;;7.88;52.02;98893.78;5085622;28;20484;-66
2021/04/28 09:35:42;;;;;;;8.70;1.50;;;;;;;7.06;51.80;98907.31;5084510;28;20112;-65
2021/04/28 09:38:10;;;;;;;4.85;1.73;;;;;;;6.51;53.49;98916.00;5086863;28;20070;-66
2021/04/28 09:40:44;;;;;;;4.47;1.90;;;;;;;7.10;52.08;98918.47;5087001;28;20443;-63
2021/04/28 09:43:13;;;;;;;5.40;1.60;;;;;;;7.50;51.87;98924.09;5079521;28;20131;-64
2021/04/28 09:45:41;;;;;;;4.05;1.50;;;;;;;7.66;51.62;98925.69;5079380;28;20048;-64
2021/04/28 09:48:11;;;;;;;7.03;2.10;;;;;;;7.75;51.93;98933.28;5079130;28;20044;-64
2021/04/28 09:50:38;;;;;;;5.93;2.00;;;;;;;6.43;53.66;98938.25;5080638;28;20040;-65
2021/04/28 09:53:04;;;;;;;9.68;2.20;;;;;;;6.98;53.96;98950.53;5087345;28;20040;-65
2021/04/28 09:55:31;;;;;;;5.10;1.60;;;;;;;7.62;53.08;98946.38;5083095;28;20055;-67
2021/04/28 09:57:58;;;;;;;3.92;1.40;;;;;;;8.08;52.43;98939.94;5073706;28;20113;-65
2021/04/28 10:00:27;;;;;;;4.28;1.30;;;;;;;8.12;52.04;98939.38;5083863;28;20055;-65
2021/04/28 10:02:55;;;;;;;6.28;1.50;;;;;;;8.14;51.65;98939.94;5092793;28;20044;-64
2021/04/28 10:05:27;;;;;;;2.65;1.23;;;;;;;7.23;52.38;98946.97;5076974;28;20045;-64
2021/04/28 10:08:08;;;;;;;5.07;1.40;;;;;;;7.34;52.65;98953.25;5081592;28;20484;-64
2021/04/28 10:10:44;;;;;;;3.75;1.40;;;;;;;6.97;52.73;98968.75;5086782;28;20044;-67
2021/04/28 10:13:12;;;;;;;13.57;1.50;;;;;;;7.61;52.76;98960.25;5083889;28;20083;-66
2021/04/28 10:15:38;;;;;;;4.60;1.50;;;;;;;8.08;51.76;98956.28;5087932;28;20044;-64
2021/04/28 10:18:06;;;;;;;1.85;1.08;;;;;;;8.19;51.60;98956.25;5085840;28;20070;-65
2021/04/28 10:20:33;;;;;;;3.17;1.00;;;;;;;8.24;51.54;98956.22;5087426;28;20444;-65
2021/04/28 10:23:03;;;;;;;4.65;1.52;;;;;;;8.22;51.54;98950.25;5090793;28;20076;-65
2021/04/28 10:25:29;;;;;;;4.20;1.50;;;;;;;8.11;50.94;98956.81;5079898;28;20044;-65
2021/04/28 10:27:56;;;;;;;4.85;1.27;;;;;;;8.02;51.30;98953.88;5072872;28;20066;-67
2021/04/28 10:30:24;;;;;;;3.00;1.42;;;;;;;7.95;51.66;98954.16;5082163;28;20502;-64
2021/04/28 10:32:52;;;;;;;3.03;1.20;;;;;;;7.46;51.95;98945.59;5084500;28;20056;-67
2021/04/28 10:35:20;;;;;;;3.95;1.38;;;;;;;7.56;52.34;98946.66;5081583;28;20036;-66
2021/04/28 10:37:49;;;;;;;3.53;1.38;;;;;;;7.86;51.77;98944.97;5093405;28;20056;-65
2021/04/28 10:40:17;;;;;;;4.75;1.38;;;;;;;7.77;52.11;98953.69;5079832;28;20469;-63
2021/04/28 10:42:43;;;;;;;2.50;1.20;;;;;;;7.40;52.36;98960.31;5072390;28;20130;-64
2021/04/28 10:45:11;;;;;;;3.05;1.30;;;;;;;7.92;51.95;98952.00;5075741;28;20048;-66
2021/04/28 10:47:41;;;;;;;6.32;1.58;;;;;;;8.19;51.64;98942.63;5088078;28;20610;-67
2021/04/28 10:50:20;;;;;;;5.50;1.50;;;;;;;8.63;50.81;98932.88;5072529;28;20064;-66
2021/04/28 10:52:50;;;;;;;4.82;1.60;;;;;;;8.95;50.49;98950.63;5082639;28;20039;-65
2021/04/28 10:55:44;;;;;;;3.10;1.40;;;;;;;9.02;50.07;98942.13;5085620;28;20123;-65
2021/04/28 10:58:37;;;;;;;5.32;1.73;;;;;;;9.13;50.36;98943.66;5067245;28;20535;-66
2021/04/28 11:01:27;;;;;;;2.90;1.27;;;;;;;8.84;49.79;98940.91;5088673;28;20568;-65
2021/04/28 11:03:55;;;;;;;5.78;1.55;;;;;;;8.93;50.26;98945.47;5073755;28;20048;-65
2021/04/28 11:06:49;;;;;;;4.25;1.40;;;;;;;9.22;50.10;98949.31;5090688;28;20115;-64
2021/04/28 11:09:20;;;;;;;13.98;1.50;;;;;;;8.49;50.95;98947.09;5072243;28;20053;-66
2021/04/28 11:11:52;;;;;;;11.07;2.13;;;;;;;8.59;50.38;98951.72;5085189;28;20052;-65
2021/04/28 11:14:49;;;;;;;11.82;1.90;;;;;;;8.94;50.28;98949.00;5086616;28;20052;-66
2021/04/28 11:17:26;;;;;;;12.23;2.15;;;;;;;8.71;50.18;98954.09;5072384;28;20056;-65
2021/04/28 11:19:54;;;;;;;9.23;1.40;;;;;;;8.35;50.10;98946.06;5077283;28;20089;-66
2021/04/28 11:22:26;;;;;;;3.05;1.60;;;;;;;8.17;50.75;98953.81;5080967;28;20139;-67
2021/04/28 11:25:08;;;;;;;8.45;1.67;;;;;;;7.79;51.52;98945.25;5074680;28;20131;-66
2021/04/28 11:27:42;;;;;;;3.60;1.50;;;;;;;8.21;51.22;98944.00;5082144;28;20052;-67
2021/04/28 11:30:45;;;;;;;5.25;1.70;;;;;;;8.42;51.38;98951.22;5083566;28;20059;-66
2021/04/28 11:33:39;;;;;;;9.68;2.20;;;;;;;8.49;50.63;98947.09;5067077;28;20052;-68
2021/04/28 11:36:15;;;;;;;5.80;1.65;;;;;;;8.92;50.56;98948.47;5091648;28;20106;-70
2021/04/28 11:38:44;;;;;;;11.77;2.00;;;;;;;9.10;50.31;98954.34;5076348;28;20048;-69
2021/04/28 11:41:21;;;;;;;5.55;1.67;;;;;;;9.35;50.03;98951.38;5083681;28;20047;-67
2021/04/28 11:43:50;;;;;;;16.58;2.10;;;;;;;9.27;49.36;98946.53;5080181;28;20036;-66
2021/04/28 11:46:17;;;;;;;15.55;2.42;;;;;;;9.49;49.67;98943.31;5077908;28;20047;-66
2021/04/28 11:48:45;;;;;;;26.38;2.55;;;;;;;9.57;49.30;98943.81;5086099;28;20052;-63
2021/04/28 11:51:14;;;;;;;7.10;1.80;;;;;;;9.63;49.20;98948.09;5090727;28;20040;-66
2021/04/28 11:53:46;;;;;;;4.43;1.40;;;;;;;9.70;49.46;98947.75;5086747;28;20040;-66
2021/04/28 11:56:26;;;;;;;7.50;1.88;;;;;;;9.69;49.30;98940.69;5084648;28;20048;-64